createdAt,value
2023-05-15T00:01:45.756Z,12.98
2023-05-15T00:04:17.669Z,12.98
2023-05-15T00:06:49.216Z,12.97
2023-05-15T00:09:21.105Z,12.98
2023-05-15T00:11:52.761Z,12.98
2023-05-15T00:14:24.233Z,12.95
2023-05-15T00:16:56.069Z,12.94
2023-05-15T00:19:27.582Z,12.85
2023-05-15T00:21:59.051Z,12.72
2023-05-15T00:24:30.514Z,12.59
2023-05-15T00:27:02.259Z,12.57
2023-05-15T00:29:33.724Z,12.57
2023-05-15T00:32:05.506Z,12.48
2023-05-15T00:34:36.988Z,12.47
2023-05-15T00:37:08.891Z,12.46
2023-05-15T00:39:40.370Z,12.39
2023-05-15T00:42:11.821Z,12.26
2023-05-15T00:44:43.286Z,12.00
2023-05-15T00:47:14.830Z,11.81
2023-05-15T00:49:46.653Z,11.72
2023-05-15T00:52:18.113Z,11.71
2023-05-15T00:54:49.896Z,11.68
2023-05-15T00:57:21.356Z,11.67
2023-05-15T00:59:53.387Z,11.67
2023-05-15T01:02:24.968Z,11.64
2023-05-15T01:04:56.873Z,11.55
2023-05-15T01:07:28.812Z,11.46
2023-05-15T01:10:00.626Z,11.37
2023-05-15T01:12:32.356Z,11.35
2023-05-15T01:15:03.836Z,11.23
2023-05-15T01:17:35.323Z,11.26
2023-05-15T01:20:06.878Z,11.26
2023-05-15T01:22:38.446Z,11.32
2023-05-15T01:25:09.892Z,11.34
2023-05-15T01:27:41.339Z,11.33
2023-05-15T01:30:12.861Z,11.34
2023-05-15T01:32:44.653Z,11.33
2023-05-15T01:35:16.130Z,11.31
2023-05-15T01:37:47.988Z,11.27
2023-05-15T01:40:19.821Z,11.24
2023-05-15T01:42:51.303Z,11.22
2023-05-15T01:45:23.076Z,11.15
2023-05-15T01:47:54.672Z,11.13
2023-05-15T01:50:26.536Z,11.08
2023-05-15T01:52:57.989Z,11.08
2023-05-15T01:55:29.763Z,11.06
2023-05-15T01:58:01.223Z,11.06
2023-05-15T02:00:33.174Z,11.06
2023-05-15T02:03:04.778Z,11.03
2023-05-15T02:05:36.435Z,10.99
2023-05-15T02:08:08.199Z,11.01
2023-05-15T02:10:39.681Z,10.96
2023-05-15T02:13:11.501Z,10.93
2023-05-15T02:15:42.956Z,10.93
2023-05-15T02:18:14.750Z,10.94
2023-05-15T02:20:46.176Z,10.90
2023-05-15T02:23:17.830Z,10.88
2023-05-15T02:25:49.308Z,10.88
2023-05-15T02:28:20.963Z,10.89
2023-05-15T02:30:52.432Z,10.88
2023-05-15T02:33:24.313Z,10.89
2023-05-15T02:35:55.764Z,10.84
2023-05-15T02:38:27.540Z,10.80
2023-05-15T02:40:59.017Z,10.75
2023-05-15T02:43:30.688Z,10.75
2023-05-15T02:46:02.359Z,10.64
2023-05-15T02:48:33.876Z,10.58
2023-05-15T02:51:05.677Z,10.53
2023-05-15T02:53:37.126Z,10.54
2023-05-15T02:56:08.882Z,10.53
2023-05-15T02:58:40.329Z,10.49
2023-05-15T03:01:12.150Z,10.52
2023-05-15T03:03:43.661Z,10.48
2023-05-15T03:06:15.292Z,10.38
2023-05-15T03:08:46.925Z,10.35
2023-05-15T03:11:18.591Z,9.05
2023-05-15T03:13:50.404Z,10.23
2023-05-15T03:16:21.901Z,10.28
2023-05-15T03:18:53.689Z,10.31
2023-05-15T03:21:25.171Z,10.36
2023-05-15T03:23:56.969Z,10.35
2023-05-15T03:26:28.425Z,10.24
2023-05-15T03:29:00.213Z,10.23
2023-05-15T03:31:31.684Z,10.28
2023-05-15T03:34:03.465Z,10.30
2023-05-15T03:36:34.939Z,10.34
2023-05-15T03:39:06.715Z,10.34
2023-05-15T03:41:38.203Z,10.30
2023-05-15T03:44:09.656Z,10.32
2023-05-15T03:46:41.517Z,10.32
2023-05-15T03:49:13.003Z,10.34
2023-05-15T03:51:44.753Z,10.40
2023-05-15T03:54:16.259Z,10.45
2023-05-15T03:56:48.031Z,10.49
2023-05-15T03:59:19.540Z,10.53
2023-05-15T04:02:03.665Z,10.51
2023-05-15T04:04:36.628Z,10.51
2023-05-15T04:07:08.390Z,10.53
2023-05-15T04:09:39.843Z,10.59
2023-05-15T04:12:11.567Z,10.72
2023-05-15T04:14:43.014Z,10.78
2023-05-15T04:17:14.918Z,10.85
2023-05-15T04:19:46.351Z,11.02
2023-05-15T04:22:18.184Z,11.17
2023-05-15T04:24:49.655Z,11.32
2023-05-15T04:27:21.439Z,11.53
2023-05-15T04:29:52.878Z,11.72
2023-05-15T04:32:24.616Z,11.96
2023-05-15T04:34:56.100Z,12.15
2023-05-15T04:37:28.060Z,12.34
2023-05-15T04:39:59.500Z,12.50
2023-05-15T04:42:31.404Z,12.54
2023-05-15T04:45:02.870Z,12.68
2023-05-15T04:47:34.502Z,12.68
2023-05-15T04:50:05.998Z,12.70
2023-05-15T04:52:37.727Z,12.62
2023-05-15T04:55:09.181Z,12.65
2023-05-15T04:57:40.926Z,12.61
2023-05-15T05:00:13.453Z,12.64
2023-05-15T05:02:45.209Z,12.64
2023-05-15T05:05:16.716Z,12.60
2023-05-15T05:07:48.547Z,12.62
2023-05-15T05:10:20.026Z,12.67
2023-05-15T05:12:51.813Z,12.71
2023-05-15T05:15:23.355Z,12.81
2023-05-15T05:17:55.592Z,12.88
2023-05-15T05:20:27.110Z,12.97
2023-05-15T05:22:58.916Z,13.03
2023-05-15T05:25:30.393Z,13.11
2023-05-15T05:28:02.065Z,13.29
2023-05-15T05:30:33.545Z,13.53
2023-05-15T05:33:05.556Z,13.88
2023-05-15T05:35:37.091Z,14.21
2023-05-15T05:38:08.950Z,14.26
2023-05-15T05:40:40.410Z,14.50
2023-05-15T05:43:12.188Z,14.92
2023-05-15T05:45:43.633Z,15.18
2023-05-15T05:48:15.390Z,15.48
2023-05-15T05:50:46.835Z,16.20
2023-05-15T05:53:18.629Z,16.49
2023-05-15T05:55:50.105Z,16.59
2023-05-15T05:58:25.855Z,16.47
2023-05-15T06:00:57.817Z,16.24
2023-05-15T06:03:29.592Z,16.08
2023-05-15T06:06:01.122Z,15.89
2023-05-15T06:08:32.837Z,15.83
2023-05-15T06:11:04.281Z,15.92
2023-05-15T06:13:35.756Z,16.12
2023-05-15T06:16:07.206Z,16.29
2023-05-15T06:18:39.224Z,16.46
2023-05-15T06:21:10.712Z,16.65
2023-05-15T06:23:42.603Z,16.64
2023-05-15T06:26:14.087Z,16.61
2023-05-15T06:28:45.857Z,16.60
2023-05-15T06:31:17.411Z,16.65
2023-05-15T06:33:49.415Z,16.68
2023-05-15T06:36:20.866Z,16.75
2023-05-15T06:38:52.648Z,16.91
2023-05-15T06:41:24.129Z,17.11
2023-05-15T06:43:55.925Z,17.30
2023-05-15T06:46:27.883Z,17.43
2023-05-15T06:48:59.739Z,17.65
2023-05-15T06:51:31.206Z,17.93
2023-05-15T06:54:03.006Z,18.17
2023-05-15T06:56:34.519Z,18.32
2023-05-15T06:59:06.152Z,18.56
2023-05-15T07:01:37.681Z,18.78
2023-05-15T07:04:09.556Z,18.90
2023-05-15T07:06:41.008Z,18.96
2023-05-15T07:09:12.743Z,19.15
2023-05-15T07:11:44.218Z,19.42
2023-05-15T07:14:19.187Z,19.90
2023-05-15T07:16:51.048Z,20.17
2023-05-15T07:19:22.903Z,20.20
2023-05-15T07:21:54.837Z,20.59
2023-05-15T07:24:26.289Z,21.01
2023-05-15T07:26:59.261Z,22.08
2023-05-15T07:29:30.917Z,23.19
2023-05-15T07:32:02.825Z,23.48
2023-05-15T07:34:34.339Z,23.14
2023-05-15T07:37:06.261Z,22.98
2023-05-15T07:39:37.872Z,22.83
2023-05-15T07:42:09.900Z,22.73
2023-05-15T07:44:43.992Z,22.66
2023-05-15T07:47:16.858Z,22.51
2023-05-15T07:49:48.628Z,22.15
2023-05-15T07:52:20.132Z,22.07
2023-05-15T07:54:51.606Z,21.49
2023-05-15T07:57:23.047Z,21.25
2023-05-15T07:59:54.964Z,20.91
2023-05-15T08:02:26.485Z,20.98
2023-05-15T08:04:58.361Z,20.75
2023-05-15T08:07:29.822Z,20.90
2023-05-15T08:10:01.649Z,20.92
2023-05-15T08:12:33.142Z,20.91
2023-05-15T08:15:04.996Z,20.94
2023-05-15T08:17:36.480Z,20.80
2023-05-15T08:20:07.959Z,20.73
2023-05-15T08:22:39.427Z,20.69
2023-05-15T08:25:10.878Z,20.68
2023-05-15T08:27:42.757Z,20.73
2023-05-15T08:30:14.212Z,20.72
2023-05-15T08:32:45.805Z,20.88
2023-05-15T08:35:17.323Z,21.01
2023-05-15T08:37:49.131Z,21.06
2023-05-15T08:40:25.621Z,21.05
2023-05-15T08:43:06.517Z,21.36
2023-05-15T08:45:38.068Z,21.87
2023-05-15T08:48:09.600Z,22.15
2023-05-15T08:50:41.096Z,22.15
2023-05-15T08:53:12.636Z,22.04
2023-05-15T08:55:44.437Z,21.92
2023-05-15T08:58:15.918Z,21.85
2023-05-15T09:00:47.415Z,21.56
2023-05-15T09:03:18.969Z,21.26
2023-05-15T09:05:50.726Z,20.86
2023-05-15T09:08:23.338Z,20.47
2023-05-15T09:10:55.368Z,20.26
2023-05-15T09:13:27.220Z,20.11
2023-05-15T09:15:58.684Z,20.13
2023-05-15T09:18:30.362Z,20.14
2023-05-15T09:21:01.875Z,20.19
2023-05-15T09:23:33.456Z,20.21
2023-05-15T09:26:05.008Z,20.15
2023-05-15T09:28:36.505Z,20.18
2023-05-15T09:31:08.025Z,20.24
2023-05-15T09:33:39.492Z,20.28
2023-05-15T09:36:10.954Z,20.45
2023-05-15T09:38:42.763Z,20.66
2023-05-15T09:41:14.742Z,20.78
2023-05-15T09:43:47.976Z,20.96
2023-05-15T09:46:19.927Z,20.92
2023-05-15T09:48:51.424Z,21.12
2023-05-15T09:51:23.099Z,21.38
2023-05-15T09:53:54.579Z,21.67
2023-05-15T09:56:26.214Z,20.92
2023-05-15T09:58:57.838Z,21.92
2023-05-15T10:01:29.781Z,22.11
2023-05-15T10:04:01.266Z,22.16
2023-05-15T10:06:33.086Z,22.18
2023-05-15T10:09:04.853Z,22.48
2023-05-15T10:11:36.322Z,22.95
2023-05-15T10:14:08.080Z,22.97
2023-05-15T10:16:39.641Z,23.13
2023-05-15T10:19:11.596Z,23.18
2023-05-15T10:21:43.075Z,23.11
2023-05-15T10:24:14.847Z,23.52
2023-05-15T10:26:46.305Z,23.81
2023-05-15T10:29:17.770Z,24.01
2023-05-15T10:31:49.321Z,24.26
2023-05-15T10:34:20.822Z,24.81
2023-05-15T10:36:52.288Z,24.83
2023-05-15T10:39:24.048Z,24.94
2023-05-15T10:41:55.518Z,25.06
2023-05-15T10:44:26.980Z,24.83
2023-05-15T10:46:58.898Z,24.59
2023-05-15T10:49:30.450Z,24.62
2023-05-15T10:52:02.478Z,24.12
2023-05-15T10:54:33.924Z,23.33
2023-05-15T10:57:05.813Z,23.34
2023-05-15T10:59:37.548Z,23.19
2023-05-15T11:02:09.342Z,23.05
2023-05-15T11:04:40.879Z,22.52
2023-05-15T11:07:12.834Z,22.38
2023-05-15T11:09:44.776Z,22.38
2023-05-15T11:12:16.265Z,22.25
2023-05-15T11:14:48.196Z,21.82
2023-05-15T11:17:19.655Z,21.92
2023-05-15T11:19:51.632Z,21.77
2023-05-15T11:22:23.173Z,21.80
2023-05-15T11:24:54.739Z,22.04
2023-05-15T11:27:26.178Z,22.43
2023-05-15T11:29:57.739Z,22.51
2023-05-15T11:32:29.235Z,22.43
2023-05-15T11:35:00.785Z,22.46
2023-05-15T11:37:32.747Z,22.45
2023-05-15T11:40:04.520Z,23.20
2023-05-15T11:42:36.003Z,23.76
2023-05-15T11:45:07.468Z,24.27
2023-05-15T11:47:39.030Z,24.33
2023-05-15T11:50:10.501Z,24.82
2023-05-15T11:52:42.126Z,24.87
2023-05-15T11:55:13.806Z,24.84
2023-05-15T11:57:45.254Z,24.34
2023-05-15T12:00:16.905Z,23.92
2023-05-15T12:02:48.476Z,23.87
2023-05-15T12:05:20.332Z,23.83
2023-05-15T12:07:51.796Z,24.31
2023-05-15T12:10:23.681Z,24.88
2023-05-15T12:12:55.212Z,25.78
2023-05-15T12:15:27.111Z,27.24
2023-05-15T12:17:58.596Z,27.25
2023-05-15T12:20:30.404Z,27.39
2023-05-15T12:23:01.863Z,27.51
2023-05-15T12:25:33.311Z,26.62
2023-05-15T12:28:04.773Z,26.78
2023-05-15T12:30:36.217Z,26.42
2023-05-15T12:33:08.124Z,26.92
2023-05-15T12:35:39.614Z,27.42
2023-05-15T12:38:11.392Z,27.48
2023-05-15T12:40:42.837Z,26.40
2023-05-15T12:43:14.654Z,26.05
2023-05-15T12:45:46.170Z,25.72
2023-05-15T12:48:17.644Z,25.76
2023-05-15T12:50:49.112Z,25.67
2023-05-15T12:53:20.890Z,25.79
2023-05-15T12:55:52.691Z,26.02
2023-05-15T12:58:24.165Z,25.92
2023-05-15T13:00:56.420Z,25.39
2023-05-15T13:03:28.031Z,25.59
2023-05-15T13:05:59.977Z,26.12
2023-05-15T13:08:31.477Z,26.75
2023-05-15T13:11:03.308Z,27.26
2023-05-15T13:13:34.790Z,28.59
2023-05-15T13:16:08.282Z,29.29
2023-05-15T13:18:42.013Z,29.83
2023-05-15T13:21:13.904Z,30.51
2023-05-15T13:23:45.694Z,31.29
2023-05-15T13:26:17.166Z,31.24
2023-05-15T13:28:48.959Z,30.59
2023-05-15T13:31:20.457Z,29.51
2023-05-15T13:33:51.982Z,28.49
2023-05-15T13:36:23.451Z,27.85
2023-05-15T13:38:55.144Z,28.75
2023-05-15T13:41:26.591Z,30.17
2023-05-15T13:43:58.370Z,31.48
2023-05-15T13:46:30.177Z,31.63
2023-05-15T13:49:01.698Z,30.81
2023-05-15T13:51:33.714Z,30.70
2023-05-15T13:54:07.286Z,29.66
2023-05-15T13:56:38.783Z,28.17
2023-05-15T13:59:10.265Z,24.67
2023-05-15T14:01:41.895Z,23.26
2023-05-15T14:04:13.599Z,22.50
2023-05-15T14:06:45.172Z,22.25
2023-05-15T14:09:16.717Z,22.12
2023-05-15T14:11:48.630Z,22.00
2023-05-15T14:14:20.353Z,21.25
2023-05-15T14:16:52.230Z,21.41
2023-05-15T14:19:24.310Z,22.37
2023-05-15T14:21:55.838Z,21.86
2023-05-15T14:24:27.789Z,21.75
2023-05-15T14:26:59.240Z,21.09
2023-05-15T14:29:31.000Z,22.21
2023-05-15T14:32:02.460Z,23.47
2023-05-15T14:34:34.042Z,24.20
2023-05-15T14:37:05.527Z,24.79
2023-05-15T14:39:37.024Z,24.83
2023-05-15T14:42:08.640Z,25.85
2023-05-15T14:44:40.107Z,26.12
2023-05-15T14:47:11.848Z,24.65
2023-05-15T14:49:43.504Z,24.07
2023-05-15T14:52:15.150Z,23.87
2023-05-15T14:54:56.927Z,24.06
2023-05-15T14:57:38.036Z,23.81
2023-05-15T15:00:09.621Z,24.72
2023-05-15T15:02:41.278Z,25.70
2023-05-15T15:05:12.795Z,24.54
2023-05-15T15:07:44.789Z,23.63
2023-05-15T15:10:16.262Z,23.50
2023-05-15T15:12:47.915Z,23.14
2023-05-15T15:15:19.552Z,25.15
2023-05-15T15:17:51.041Z,25.46
2023-05-15T15:20:22.548Z,24.04
2023-05-15T15:22:54.024Z,23.74
2023-05-15T15:25:25.724Z,23.31
2023-05-15T15:27:57.189Z,22.72
2023-05-15T15:30:28.954Z,22.90
2023-05-15T15:33:00.471Z,23.33
2023-05-15T15:35:32.376Z,24.08
2023-05-15T15:38:03.854Z,24.27
2023-05-15T15:40:35.369Z,24.98
2023-05-15T15:43:06.838Z,24.49
2023-05-15T15:45:38.408Z,25.73
2023-05-15T15:48:10.337Z,25.02
2023-05-15T15:50:41.820Z,24.69
2023-05-15T15:53:13.270Z,23.53
2023-05-15T15:55:47.003Z,23.03
2023-05-15T15:58:18.985Z,22.31
2023-05-15T16:00:50.477Z,22.42
2023-05-15T16:03:22.274Z,23.29
2023-05-15T16:05:53.821Z,23.40
2023-05-15T16:08:25.661Z,22.98
2023-05-15T16:10:57.165Z,22.70
2023-05-15T16:13:29.009Z,22.23
2023-05-15T16:16:00.496Z,22.20
2023-05-15T16:18:35.029Z,21.89
2023-05-15T16:21:06.872Z,21.40
2023-05-15T16:23:38.322Z,21.02
2023-05-15T16:26:09.934Z,20.69
2023-05-15T16:28:41.423Z,20.36
2023-05-15T16:31:13.244Z,20.12
2023-05-15T16:33:44.762Z,19.84
2023-05-15T16:36:16.598Z,19.55
2023-05-15T16:38:48.047Z,19.41
2023-05-15T16:41:19.708Z,19.25
2023-05-15T16:43:51.538Z,19.12
2023-05-15T16:46:23.405Z,19.01
2023-05-15T16:48:55.219Z,18.98
2023-05-15T16:51:26.700Z,18.93
2023-05-15T16:53:58.634Z,18.92
2023-05-15T16:56:30.126Z,18.69
2023-05-15T16:59:01.894Z,18.65
2023-05-15T17:01:33.433Z,18.48
2023-05-15T17:04:05.336Z,18.41
2023-05-15T17:06:36.815Z,18.50
2023-05-15T17:09:08.605Z,18.54
2023-05-15T17:11:40.083Z,18.54
2023-05-15T17:14:11.591Z,18.64
2023-05-15T17:16:43.488Z,18.45
2023-05-15T17:19:15.076Z,18.33
2023-05-15T17:21:46.780Z,18.17
2023-05-15T17:24:18.240Z,17.92
2023-05-15T17:26:49.683Z,17.81
2023-05-15T17:29:21.145Z,17.67
2023-05-15T17:31:52.732Z,17.58
2023-05-15T17:34:24.240Z,17.56
2023-05-15T17:36:55.726Z,17.47
2023-05-15T17:39:27.189Z,17.47
2023-05-15T17:41:58.676Z,17.57
2023-05-15T17:44:30.497Z,17.57
2023-05-15T17:47:02.069Z,17.44
2023-05-15T17:49:33.579Z,17.54
2023-05-15T17:52:05.028Z,17.53
2023-05-15T17:54:36.517Z,17.46
2023-05-15T17:57:07.981Z,17.41
2023-05-15T17:59:39.452Z,17.36
2023-05-15T18:02:10.941Z,17.38
2023-05-15T18:04:42.797Z,17.44
2023-05-15T18:07:14.264Z,17.40
2023-05-15T18:09:46.020Z,17.37
2023-05-15T18:12:17.492Z,17.29
2023-05-15T18:14:49.385Z,17.30
2023-05-15T18:17:21.398Z,17.31
2023-05-15T18:19:52.880Z,17.24
2023-05-15T18:22:24.665Z,17.10
2023-05-15T18:24:56.125Z,17.03
2023-05-15T18:27:27.938Z,17.00
2023-05-15T18:29:59.454Z,16.97
2023-05-15T18:32:30.971Z,16.95
2023-05-15T18:35:02.482Z,16.91
2023-05-15T18:37:33.955Z,16.79
2023-05-15T18:40:05.428Z,16.75
2023-05-15T18:42:36.900Z,16.74
2023-05-15T18:45:08.712Z,16.67
2023-05-15T18:47:42.336Z,16.54
2023-05-15T18:50:14.009Z,16.50
2023-05-15T18:52:45.489Z,16.51
2023-05-15T18:55:16.984Z,16.46
2023-05-15T18:57:48.505Z,16.43
2023-05-15T19:00:33.998Z,16.44
2023-05-15T19:03:09.913Z,16.39
2023-05-15T19:05:41.553Z,16.20
2023-05-15T19:08:13.020Z,16.11
2023-05-15T19:10:44.461Z,16.02
2023-05-15T19:13:16.198Z,15.92
2023-05-15T19:15:47.976Z,15.79
2023-05-15T19:18:19.820Z,15.78
2023-05-15T19:20:51.377Z,15.72
2023-05-15T19:23:22.864Z,15.67
2023-05-15T19:25:54.307Z,15.55
2023-05-15T19:28:26.126Z,15.55
2023-05-15T19:30:57.602Z,15.54
2023-05-15T19:33:29.417Z,15.56
2023-05-15T19:36:00.906Z,15.59
2023-05-15T19:38:32.735Z,15.57
2023-05-15T19:41:04.770Z,15.53
2023-05-15T19:43:36.225Z,15.52
2023-05-15T19:46:07.975Z,15.51
2023-05-15T19:48:39.456Z,15.38
2023-05-15T19:51:11.321Z,15.42
2023-05-15T19:53:42.802Z,15.41
2023-05-15T19:56:14.300Z,15.48
2023-05-15T19:58:45.789Z,15.49
2023-05-15T20:01:17.657Z,15.39
2023-05-15T20:03:49.292Z,15.40
2023-05-15T20:06:21.262Z,15.44
2023-05-15T20:08:52.747Z,15.41
2023-05-15T20:11:24.529Z,15.40
2023-05-15T20:13:56.341Z,15.35
2023-05-15T20:16:27.856Z,15.33
2023-05-15T20:18:59.671Z,15.26
2023-05-15T20:21:31.110Z,15.23
2023-05-15T20:24:02.883Z,15.21
2023-05-15T20:26:34.322Z,15.19
2023-05-15T20:29:05.979Z,15.04
2023-05-15T20:31:37.474Z,15.03
2023-05-15T20:34:09.285Z,14.95
2023-05-15T20:36:40.733Z,14.89
2023-05-15T20:39:12.224Z,14.82
2023-05-15T20:41:44.120Z,14.80
2023-05-15T20:44:15.877Z,14.84
2023-05-15T20:46:47.723Z,14.78
2023-05-15T20:49:19.157Z,14.79
2023-05-15T20:51:51.079Z,14.80
2023-05-15T20:54:22.543Z,14.69
2023-05-15T20:56:54.312Z,14.68
2023-05-15T20:59:25.755Z,14.67
2023-05-15T21:01:57.541Z,14.65
2023-05-15T21:04:29.001Z,14.62
2023-05-15T21:07:00.792Z,14.68
2023-05-15T21:09:32.226Z,14.60
2023-05-15T21:12:03.923Z,14.57
2023-05-15T21:14:35.464Z,14.56
2023-05-15T21:17:06.972Z,14.50
2023-05-15T21:19:38.471Z,14.49
2023-05-15T21:22:09.928Z,14.44
2023-05-15T21:24:41.381Z,14.48
2023-05-15T21:27:12.826Z,14.44
2023-05-15T21:29:44.607Z,14.47
2023-05-15T21:32:16.057Z,13.45
2023-05-15T21:34:47.904Z,14.44
2023-05-15T21:37:19.372Z,14.42
2023-05-15T21:39:51.195Z,14.40
2023-05-15T21:42:23.039Z,14.41
2023-05-15T21:44:54.894Z,14.43
2023-05-15T21:47:26.766Z,14.46
2023-05-15T21:49:58.243Z,14.48
2023-05-15T21:52:29.698Z,14.51
2023-05-15T21:55:01.140Z,14.52
2023-05-15T21:57:32.749Z,14.56
2023-05-15T22:00:04.186Z,14.59
2023-05-15T22:02:35.780Z,14.63
2023-05-15T22:05:07.332Z,14.61
2023-05-15T22:07:38.799Z,14.63
2023-05-15T22:10:10.229Z,14.61
2023-05-15T22:12:41.692Z,14.59
2023-05-15T22:15:13.454Z,14.59
2023-05-15T22:17:45.443Z,14.58
2023-05-15T22:20:16.931Z,14.64
2023-05-15T22:22:48.406Z,14.63
2023-05-15T22:25:19.861Z,14.60
2023-05-15T22:27:51.325Z,14.62
2023-05-15T22:30:23.046Z,14.61
2023-05-15T22:32:54.568Z,14.62
2023-05-15T22:35:26.180Z,14.65
2023-05-15T22:37:57.785Z,14.65
2023-05-15T22:40:29.637Z,14.68
2023-05-15T22:43:01.346Z,14.69
2023-05-15T22:45:32.829Z,14.67
2023-05-15T22:48:04.684Z,14.66
2023-05-15T22:50:36.209Z,14.66
2023-05-15T22:53:07.962Z,14.61
2023-05-15T22:55:39.419Z,14.61
2023-05-15T22:58:11.264Z,14.61
2023-05-15T23:00:42.714Z,14.59
2023-05-15T23:03:14.621Z,14.52
2023-05-15T23:05:46.134Z,14.48
2023-05-15T23:08:18.202Z,14.41
2023-05-15T23:10:49.678Z,14.36
2023-05-15T23:13:21.514Z,14.37
2023-05-15T23:15:53.372Z,14.30
2023-05-15T23:18:24.815Z,14.26
2023-05-15T23:20:56.567Z,14.21
2023-05-15T23:23:28.028Z,14.18
2023-05-15T23:25:59.932Z,14.11
2023-05-15T23:28:31.379Z,14.08
2023-05-15T23:31:03.148Z,14.04
2023-05-15T23:33:34.645Z,13.97
2023-05-15T23:36:06.260Z,13.93
2023-05-15T23:38:37.728Z,13.90
2023-05-15T23:41:09.535Z,13.86
2023-05-15T23:43:41.000Z,13.78
2023-05-15T23:46:12.509Z,13.79
2023-05-15T23:48:44.400Z,13.73
2023-05-15T23:51:15.840Z,13.74
2023-05-15T23:53:47.303Z,13.72
2023-05-15T23:56:18.772Z,13.65
2023-05-15T23:58:50.504Z,13.60
